Time;durP1;ratioP1;P1;durP2;ratioP2;P2;SDS_P1;SDS_P2;PMS_P1;PMS_P2;Temp;Humidity;BMP_temperature;BMP_pressure;BME280_temperature;BME280_humidity;BME280_pressure;Samples;Min_cycle;Max_cycle;Signal;HPM_P1;HPM_P2
2023/03/31 00:02:05;;;;;;;0.00;0.00;;;;;;;8.97;100.00;97841.22;6214646;22;20008;-78
2023/03/31 00:04:33;;;;;;;0.03;0.03;;;;;;;9.17;100.00;97858.84;6271283;22;19999;-80
2023/03/31 00:06:59;;;;;;;0.00;0.00;;;;;;;9.10;100.00;97845.69;6244979;22;20012;-79
2023/03/31 00:09:24;;;;;;;0.00;0.00;;;;;;;9.04;100.00;97825.19;6241659;22;20015;-80
2023/03/31 00:11:56;;;;;;;0.00;0.00;;;;;;;9.16;100.00;97860.78;6221851;22;20029;-80
2023/03/31 00:14:21;;;;;;;0.00;0.00;;;;;;;9.10;100.00;97815.72;6243463;22;20019;-76
2023/03/31 00:16:57;;;;;;;0.00;0.00;;;;;;;9.25;100.00;97831.59;6219495;22;20019;-78
2023/03/31 00:23:06;;;;;;;0.00;0.00;;;;;;;9.03;100.00;97758.94;6043699;22;20449;-79
2023/03/31 00:26:29;;;;;;;0.00;0.00;;;;;;;9.17;100.00;97772.41;6245633;22;20030;-82
2023/03/31 00:29:05;;;;;;;0.00;0.00;;;;;;;9.09;100.00;97757.66;6191900;22;20035;-79
2023/03/31 00:31:34;;;;;;;0.00;0.00;;;;;;;9.29;100.00;97773.66;6269281;22;20003;-79
2023/03/31 00:34:02;;;;;;;0.00;0.00;;;;;;;9.16;100.00;97734.56;6243629;22;20011;-79
2023/03/31 00:36:59;;;;;;;;;;;;;;;;;;;;;
2023/03/31 00:39:33;;;;;;;0.00;0.00;;;;;;;9.21;100.00;97713.41;6269474;22;20091;-81
2023/03/31 00:42:03;;;;;;;0.10;0.10;;;;;;;9.21;100.00;97702.50;6219855;22;20019;-81
2023/03/31 00:44:32;;;;;;;0.00;0.00;;;;;;;9.38;100.00;97709.81;6244751;22;20004;-79
2023/03/31 00:47:14;;;;;;;0.00;0.00;;;;;;;9.25;100.00;97700.69;6277898;22;20091;-79
2023/03/31 00:49:53;;;;;;;0.00;0.00;;;;;;;9.00;100.00;97625.22;6250278;22;20132;-78
2023/03/31 00:52:57;;;;;;;0.00;0.00;;;;;;;9.38;100.00;97682.53;6255579;22;20008;-78
2023/03/31 00:58:44;;;;;;;0.00;0.00;;;;;;;9.26;100.00;97675.03;6266075;22;20338;-78
2023/03/31 01:01:30;;;;;;;0.00;0.00;;;;;;;9.33;100.00;97669.09;6225299;22;20031;-79
2023/03/31 01:03:59;;;;;;;0.00;0.00;;;;;;;9.21;100.00;97634.31;6261749;22;20000;-80
2023/03/31 01:06:24;;;;;;;0.00;0.00;;;;;;;9.18;100.00;97645.84;6269560;22;20065;-78
2023/03/31 01:08:52;;;;;;;0.00;0.00;;;;;;;9.15;100.00;97660.13;6237139;22;20634;-79
2023/03/31 01:11:23;;;;;;;0.00;0.00;;;;;;;9.00;100.00;97584.34;6242269;22;20042;-80
2023/03/31 01:14:03;;;;;;;0.00;0.00;;;;;;;9.09;100.00;97631.44;6241309;22;20304;-79
2023/03/31 01:16:38;;;;;;;;;;;;;;;;;;;;;
2023/03/31 01:19:29;;;;;;;0.00;0.00;;;;;;;9.09;100.00;97598.75;6236431;23;20096;-80
2023/03/31 01:22:42;;;;;;;0.00;0.00;;;;;;;9.18;100.00;97615.88;6239903;23;20083;-80
2023/03/31 01:25:37;;;;;;;0.00;0.00;;;;;;;9.16;100.00;97582.69;6184254;23;20015;-78
2023/03/31 01:28:08;;;;;;;;;;;;;;;9.14;100.00;97579.50;6235002;23;20004;-78
2023/03/31 01:31:10;;;;;;;;;;;;;;;;;;;;;
2023/03/31 01:34:16;;;;;;;;;;;;;;;;;;;;;
2023/03/31 01:37:44;;;;;;;;;;;;;;;;;;;;;
2023/03/31 01:40:18;;;;;;;0.00;0.00;;;;;;;8.90;100.00;97509.97;6241680;23;20098;-77
2023/03/31 01:43:11;;;;;;;0.00;0.00;;;;;;;9.00;100.00;97521.66;6237833;22;20492;-77
2023/03/31 01:46:07;;;;;;;0.00;0.00;;;;;;;8.87;100.00;97483.38;6266375;22;20004;-78
2023/03/31 01:48:40;;;;;;;0.00;0.00;;;;;;;9.13;100.00;97517.91;6239436;23;20008;-78
2023/03/31 01:51:31;;;;;;;0.00;0.00;;;;;;;8.69;100.00;97443.72;6244137;23;20676;-78
2023/03/31 01:54:13;;;;;;;0.00;0.00;;;;;;;9.13;100.00;97473.50;6212221;22;20004;-77
2023/03/31 01:57:14;;;;;;;0.00;0.00;;;;;;;8.82;100.00;97450.88;6241913;22;20415;-77
2023/03/31 01:59:49;;;;;;;0.00;0.00;;;;;;;9.05;100.00;97462.31;6238438;23;20015;-78
2023/03/31 02:02:45;;;;;;;0.00;0.00;;;;;;;9.07;100.00;97459.25;6237460;23;20008;-78
2023/03/31 02:05:17;;;;;;;0.00;0.00;;;;;;;8.81;100.00;97435.63;6253683;22;20011;-77
2023/03/31 02:07:53;;;;;;;0.00;0.00;;;;;;;8.91;100.00;97446.16;6239037;22;20082;-76
2023/03/31 02:10:23;;;;;;;0.00;0.00;;;;;;;8.96;100.00;97498.91;6240429;23;19996;-76
2023/03/31 02:13:01;;;;;;;0.00;0.00;;;;;;;8.72;100.00;97415.81;6238009;23;20083;-79
2023/03/31 02:15:32;;;;;;;0.00;0.00;;;;;;;8.90;100.00;97443.78;6242322;22;20090;-78
2023/03/31 02:18:02;;;;;;;0.00;0.00;;;;;;;8.77;100.00;97442.84;6240176;23;20478;-77
2023/03/31 02:23:28;;;;;;;0.03;0.03;;;;;;;8.79;100.00;97405.19;6224527;22;20038;-76
2023/03/31 02:26:11;;;;;;;0.00;0.00;;;;;;;8.71;100.00;97425.09;6241816;23;20003;-77
2023/03/31 02:28:44;;;;;;;0.00;0.00;;;;;;;8.77;100.00;97393.03;6236725;23;20004;-77
2023/03/31 02:31:27;;;;;;;0.00;0.00;;;;;;;8.86;100.00;97397.31;6215544;23;20047;-77
2023/03/31 02:34:01;;;;;;;0.00;0.00;;;;;;;8.64;100.00;97362.16;6238701;23;20011;-77
2023/03/31 02:36:28;;;;;;;0.00;0.00;;;;;;;8.52;100.00;97341.06;6241048;23;20493;-76
2023/03/31 02:39:21;;;;;;;0.05;0.05;;;;;;;8.82;100.00;97420.91;6212076;23;20012;-76
2023/03/31 02:41:56;;;;;;;0.00;0.00;;;;;;;8.63;100.00;97371.44;6235325;23;20386;-76
2023/03/31 02:44:22;;;;;;;0.00;0.00;;;;;;;8.71;100.00;97359.72;6239741;22;20477;-77
2023/03/31 02:46:49;;;;;;;0.00;0.00;;;;;;;8.64;100.00;97373.06;6237372;23;20326;-79
2023/03/31 02:49:20;;;;;;;0.00;0.00;;;;;;;8.63;100.00;97341.47;6237352;23;20062;-76
2023/03/31 02:52:09;;;;;;;0.00;0.00;;;;;;;8.67;100.00;97375.94;6240222;23;20062;-76
2023/03/31 02:55:11;;;;;;;0.00;0.00;;;;;;;8.66;100.00;97346.28;6240199;23;20000;-78
2023/03/31 02:58:28;;;;;;;0.00;0.00;;;;;;;8.54;100.00;97320.56;6238286;23;20434;-77
2023/03/31 03:00:56;;;;;;;0.00;0.00;;;;;;;8.70;100.00;97350.75;6089317;23;20554;-76
2023/03/31 03:03:43;;;;;;;0.00;0.00;;;;;;;8.51;100.00;97362.06;6094490;23;20018;-78
2023/03/31 03:06:36;;;;;;;0.00;0.00;;;;;;;8.68;100.00;97344.03;6191375;23;20443;-77
2023/03/31 03:09:21;;;;;;;0.00;0.00;;;;;;;8.65;100.00;97322.91;6236678;23;20458;-76
2023/03/31 03:12:20;;;;;;;0.00;0.00;;;;;;;8.70;100.00;97314.53;6237029;23;20087;-77
2023/03/31 03:15:06;;;;;;;0.00;0.00;;;;;;;8.73;100.00;97341.09;6243546;22;20015;-76
2023/03/31 03:17:43;;;;;;;0.00;0.00;;;;;;;8.65;100.00;97339.25;6241365;22;20004;-77
2023/03/31 03:20:22;;;;;;;;;;;;;;;;;;;;;
2023/03/31 03:22:48;;;;;;;0.00;0.00;;;;;;;8.53;100.00;97294.44;6266081;22;20771;-77
2023/03/31 03:25:25;;;;;;;0.00;0.00;;;;;;;8.64;100.00;97286.69;6218988;22;20027;-77
2023/03/31 03:27:56;;;;;;;0.10;0.10;;;;;;;8.66;100.00;97280.91;6191252;22;20449;-77
2023/03/31 03:30:22;;;;;;;0.00;0.00;;;;;;;8.54;100.00;97249.75;6220080;22;20066;-77
2023/03/31 03:32:50;;;;;;;0.00;0.00;;;;;;;8.71;100.00;97262.44;6242504;22;20007;-76
2023/03/31 03:35:17;;;;;;;0.00;0.00;;;;;;;8.59;100.00;97256.13;6217834;22;20027;-77
2023/03/31 03:37:45;;;;;;;0.00;0.00;;;;;;;8.62;100.00;97255.47;6218734;22;20019;-78
2023/03/31 03:40:11;;;;;;;0.00;0.00;;;;;;;8.52;100.00;97249.25;6241193;22;20015;-77
2023/03/31 03:42:37;;;;;;;0.00;0.00;;;;;;;8.60;100.00;97249.53;6218730;22;20015;-77
2023/03/31 03:45:12;;;;;;;0.00;0.00;;;;;;;8.59;100.00;97237.06;6265421;22;20974;-77
2023/03/31 03:47:38;;;;;;;0.00;0.00;;;;;;;8.55;100.00;97218.63;6194738;22;20003;-77
2023/03/31 03:50:14;;;;;;;;;;;;;;;;;;;;;
2023/03/31 03:52:47;;;;;;;0.00;0.00;;;;;;;8.55;100.00;97253.25;6245759;22;20074;-77
2023/03/31 03:55:13;;;;;;;0.10;0.10;;;;;;;8.55;100.00;97205.03;6240286;22;20031;-77
2023/03/31 03:57:51;;;;;;;;;;;;;;;;;;;;;
2023/03/31 04:00:19;;;;;;;0.00;0.00;;;;;;;8.53;100.00;97192.88;6241441;22;20083;-78
2023/03/31 04:02:54;;;;;;;0.00;0.00;;;;;;;8.57;100.00;97204.69;6219598;22;20418;-79
2023/03/31 04:05:24;;;;;;;0.00;0.00;;;;;;;8.48;100.00;97188.41;6216867;22;20061;-76
2023/03/31 04:08:08;;;;;;;;;;;;;;;;;;;;;
2023/03/31 04:10:34;;;;;;;0.00;0.00;;;;;;;8.53;100.00;97204.56;6242379;22;20106;-77
2023/03/31 04:13:02;;;;;;;0.00;0.00;;;;;;;8.52;100.00;97170.28;6245191;22;20392;-77
2023/03/31 04:15:30;;;;;;;0.00;0.00;;;;;;;8.58;100.00;97189.16;6240016;22;20616;-77
2023/03/31 04:18:01;;;;;;;0.00;0.00;;;;;;;8.52;100.00;97170.28;6245711;22;20027;-77
2023/03/31 04:20:26;;;;;;;0.00;0.00;;;;;;;8.54;100.00;97154.44;6241630;22;20086;-76
2023/03/31 04:23:14;;;;;;;0.00;0.00;;;;;;;8.71;100.00;97188.09;6243166;22;20109;-78
2023/03/31 04:25:49;;;;;;;0.10;0.10;;;;;;;8.56;100.00;97162.25;6228837;22;20091;-78
2023/03/31 04:28:22;;;;;;;0.00;0.00;;;;;;;8.53;100.00;97125.59;6217174;22;20047;-78
2023/03/31 04:30:50;;;;;;;0.00;0.00;;;;;;;8.60;100.00;97126.97;6243685;22;20418;-77
2023/03/31 04:33:25;;;;;;;0.00;0.00;;;;;;;8.52;100.00;97113.09;6240844;22;20031;-76
2023/03/31 04:35:54;;;;;;;0.00;0.00;;;;;;;8.57;100.00;97103.91;6243521;22;20082;-76
2023/03/31 04:38:21;;;;;;;0.00;0.00;;;;;;;8.69;100.00;97146.78;6239912;22;20012;-77
2023/03/31 04:40:50;;;;;;;0.00;0.00;;;;;;;8.83;100.00;97144.53;6218581;22;20034;-76
2023/03/31 04:43:16;;;;;;;0.00;0.00;;;;;;;8.73;100.00;97123.16;6240956;22;20493;-78
2023/03/31 04:45:42;;;;;;;0.00;0.00;;;;;;;8.76;100.00;97136.16;6219587;22;20007;-78
2023/03/31 04:48:10;;;;;;;0.00;0.00;;;;;;;8.82;100.00;97125.81;6216560;22;20334;-76
2023/03/31 04:50:36;;;;;;;0.00;0.00;;;;;;;8.97;100.00;97154.38;6218005;22;20007;-75
2023/03/31 04:53:13;;;;;;;0.00;0.00;;;;;;;8.93;100.00;97132.44;6194323;22;20032;-77
2023/03/31 04:55:41;;;;;;;0.00;0.00;;;;;;;8.87;100.00;97145.47;6268180;22;20008;-77
2023/03/31 04:58:06;;;;;;;0.00;0.00;;;;;;;8.99;100.00;97141.22;6220043;22;20529;-77
2023/03/31 05:00:32;;;;;;;0.00;0.00;;;;;;;8.90;100.00;97133.91;6240187;22;20000;-76
2023/03/31 05:03:00;;;;;;;0.00;0.00;;;;;;;8.85;100.00;97125.94;6218978;22;20015;-77
2023/03/31 05:05:26;;;;;;;0.00;0.00;;;;;;;8.96;100.00;97153.56;6218567;22;20011;-77
2023/03/31 05:07:51;;;;;;;0.00;0.00;;;;;;;8.81;100.00;97125.03;6247344;22;20092;-77
2023/03/31 05:10:17;;;;;;;0.10;0.10;;;;;;;8.84;100.00;97137.19;6244159;22;20008;-77
2023/03/31 05:12:42;;;;;;;0.00;0.00;;;;;;;8.82;100.00;97112.19;6221366;22;20090;-77
2023/03/31 05:15:08;;;;;;;0.00;0.00;;;;;;;8.80;100.00;97109.81;6246147;22;20024;-78
2023/03/31 05:17:35;;;;;;;0.00;0.00;;;;;;;8.89;100.00;97126.88;6218591;22;20003;-77
2023/03/31 05:20:08;;;;;;;0.00;0.00;;;;;;;8.84;100.00;97124.34;6245765;22;20004;-77
2023/03/31 05:22:42;;;;;;;0.00;0.00;;;;;;;8.90;100.00;97144.81;6246861;22;20333;-77
2023/03/31 05:25:08;;;;;;;0.00;0.00;;;;;;;8.84;100.00;97151.59;6246366;22;20061;-78
2023/03/31 05:27:35;;;;;;;0.00;0.00;;;;;;;8.82;100.00;97142.97;6272615;22;20027;-78
2023/03/31 05:30:01;;;;;;;0.00;0.00;;;;;;;8.74;100.00;97103.75;6265844;22;20414;-78
2023/03/31 05:32:27;;;;;;;0.00;0.00;;;;;;;8.85;100.00;97136.06;6244848;22;20414;-78
2023/03/31 05:34:55;;;;;;;0.00;0.00;;;;;;;8.82;100.00;97125.81;6266485;22;20023;-78
2023/03/31 05:37:23;;;;;;;0.00;0.00;;;;;;;8.86;100.00;97143.91;6244661;22;20103;-78
2023/03/31 05:39:49;;;;;;;0.10;0.10;;;;;;;8.83;100.00;97128.19;6241845;22;20086;-78
2023/03/31 05:42:17;;;;;;;0.00;0.00;;;;;;;9.00;100.00;97138.16;6245140;22;20027;-77
2023/03/31 05:44:42;;;;;;;0.00;0.00;;;;;;;8.99;100.00;97130.31;6243371;22;20308;-78
2023/03/31 05:47:10;;;;;;;0.00;0.00;;;;;;;9.12;100.00;97142.06;6218688;22;20062;-77
2023/03/31 05:49:37;;;;;;;0.00;0.00;;;;;;;9.09;100.00;97110.81;6220885;22;20007;-77
2023/03/31 05:52:05;;;;;;;0.00;0.00;;;;;;;9.10;100.00;97115.13;6192568;22;20011;-77
2023/03/31 05:54:31;;;;;;;0.00;0.00;;;;;;;9.10;100.00;97126.03;6245518;22;20083;-77
2023/03/31 05:56:56;;;;;;;0.00;0.00;;;;;;;9.15;100.00;97109.44;6241169;22;20659;-76
2023/03/31 05:59:21;;;;;;;0.10;0.10;;;;;;;9.09;100.00;97114.31;6244856;22;20458;-76
2023/03/31 06:01:47;;;;;;;0.00;0.00;;;;;;;9.24;100.00;97159.25;6241498;22;20326;-77
2023/03/31 06:04:12;;;;;;;0.00;0.00;;;;;;;9.14;100.00;97109.78;6219014;22;20130;-77
2023/03/31 06:06:38;;;;;;;0.00;0.00;;;;;;;9.07;100.00;97126.72;6271559;22;20078;-77
2023/03/31 06:09:06;;;;;;;0.00;0.00;;;;;;;8.97;100.00;97127.13;6215546;22;20086;-78
2023/03/31 06:11:32;;;;;;;0.00;0.00;;;;;;;8.94;100.00;97138.72;6219496;22;20089;-79
2023/03/31 06:13:57;;;;;;;0.00;0.00;;;;;;;8.81;100.00;97119.56;6240667;22;20011;-76
2023/03/31 06:16:27;;;;;;;0.00;0.00;;;;;;;8.87;100.00;97112.78;6193455;22;20089;-76
2023/03/31 06:18:54;;;;;;;0.00;0.00;;;;;;;8.86;100.00;97138.47;6215905;22;20003;-74
2023/03/31 06:21:22;;;;;;;0.00;0.00;;;;;;;8.76;100.00;97108.91;6244122;22;20091;-74
2023/03/31 06:23:48;;;;;;;0.00;0.00;;;;;;;8.81;100.00;97125.03;6243677;22;20437;-79
2023/03/31 06:26:15;;;;;;;0.00;0.00;;;;;;;8.82;100.00;97110.28;6216144;22;20003;-80
2023/03/31 06:28:44;;;;;;;0.00;0.00;;;;;;;8.80;100.00;97100.84;6244999;22;19999;-79
2023/03/31 06:31:14;;;;;;;0.00;0.00;;;;;;;8.82;100.00;97117.63;6266874;22;20002;-81
2023/03/31 07:46:29;;;;;;;;;;;;;;;;;;;;;
2023/03/31 07:53:20;;;;;;;;;;;;;;;;;;;;;
2023/03/31 07:57:04;;;;;;;;;;;;;;;;;;;;;
2023/03/31 08:04:41;;;;;;;;;;;;;;;;;;;;;
2023/03/31 08:07:58;;;;;;;;;;;;;;;;;;;;;
2023/03/31 08:34:54;;;;;;;0.00;0.00;;;;;;;9.68;100.00;97207.03;5961841;23;20015;-79
2023/03/31 08:38:08;;;;;;;0.00;0.00;;;;;;;9.74;100.00;97208.44;6119858;23;20009;-77
2023/03/31 08:40:39;;;;;;;0.00;0.00;;;;;;;9.58;100.00;97190.00;6212991;23;20050;-78
2023/03/31 08:43:45;;;;;;;0.00;0.00;;;;;;;9.93;100.00;97235.97;6192352;23;20012;-77
2023/03/31 08:49:20;;;;;;;0.00;0.00;;;;;;;9.83;100.00;97222.78;6206440;23;20431;-76
2023/03/31 08:52:00;;;;;;;0.00;0.00;;;;;;;9.91;100.00;97230.03;6190599;23;20352;-76
2023/03/31 08:54:42;;;;;;;0.00;0.00;;;;;;;10.13;100.00;97258.03;6210078;23;20011;-76
2023/03/31 08:57:18;;;;;;;0.00;0.00;;;;;;;10.17;100.00;97253.50;6239285;23;20000;-76
2023/03/31 08:59:47;;;;;;;0.00;0.00;;;;;;;10.06;100.00;97246.88;6241351;23;20008;-76
2023/03/31 09:02:38;;;;;;;0.00;0.00;;;;;;;10.19;100.00;97273.09;6214971;23;20014;-75
2023/03/31 09:05:07;;;;;;;0.00;0.00;;;;;;;10.26;100.00;97267.81;6212720;23;20004;-75
2023/03/31 09:07:41;;;;;;;0.00;0.00;;;;;;;10.30;100.00;97279.66;6211271;23;20011;-77
2023/03/31 09:10:28;;;;;;;0.00;0.00;;;;;;;10.27;100.00;97272.16;6241445;23;20027;-76
2023/03/31 09:13:47;;;;;;;;;;;;;;;;;;;;;
2023/03/31 09:16:44;;;;;;;;;;;;;;;;;;;;;
2023/03/31 09:19:34;;;;;;;;;;;;;;;;;;;;;
2023/03/31 09:26:10;;;;;;;0.00;0.00;;;;;;;9.81;100.00;97328.72;6118258;23;20006;-78
2023/03/31 09:29:07;;;;;;;0.00;0.00;;;;;;;9.72;100.00;97336.22;6039158;23;20033;-77
2023/03/31 09:53:20;;;;;;;;;;;;;;;;;;;;;
2023/03/31 09:59:28;;;;;;;0.03;0.03;;;;;;;10.10;100.00;97389.78;6002927;23;20007;-76
2023/03/31 10:02:24;;;;;;;0.00;0.00;;;;;;;10.29;100.00;97406.47;6084555;23;20097;-76
2023/03/31 10:05:08;;;;;;;0.00;0.00;;;;;;;10.23;100.00;97394.13;6088610;23;20089;-75
2023/03/31 10:07:39;;;;;;;0.00;0.00;;;;;;;10.20;100.00;97389.34;6102825;23;20424;-76
2023/03/31 10:10:17;;;;;;;0.00;0.00;;;;;;;10.37;100.00;97409.47;6158606;23;20443;-74
2023/03/31 10:13:04;;;;;;;;;;;;;;;;;;;;;
2023/03/31 10:15:46;;;;;;;;;;;;;;;;;;;;;
2023/03/31 10:18:43;;;;;;;0.00;0.00;;;;;;;11.14;100.00;97408.81;6206691;23;20092;-76
2023/03/31 10:21:37;;;;;;;0.00;0.00;;;;;;;12.09;100.00;97430.41;6177469;23;20038;-76
2023/03/31 10:24:11;;;;;;;0.00;0.00;;;;;;;12.62;100.00;97423.94;6233236;23;20493;-77
2023/03/31 10:26:39;;;;;;;0.00;0.00;;;;;;;12.70;100.00;97434.75;6181457;23;20055;-75
2023/03/31 10:29:33;;;;;;;0.00;0.00;;;;;;;12.83;100.00;97448.34;6209660;23;20028;-77
2023/03/31 10:32:46;;;;;;;;;;;;;;;;;;;;;
2023/03/31 10:35:35;;;;;;;0.00;0.00;;;;;;;13.18;100.00;97434.69;6207016;23;20725;-77
2023/03/31 10:38:08;;;;;;;0.00;0.00;;;;;;;13.44;100.00;97428.66;6182993;23;20092;-77
2023/03/31 10:44:21;;;;;;;;;;;;;;;;;;;;;
2023/03/31 10:47:07;;;;;;;;;;;;;;;;;;;;;
2023/03/31 10:49:38;;;;;;;0.00;0.00;;;;;;;15.99;89.04;97499.59;6182969;23;20076;-76
2023/03/31 10:52:15;;;;;;;0.00;0.00;;;;;;;14.84;90.34;97515.09;6180163;23;20082;-77
2023/03/31 10:54:51;;;;;;;0.00;0.00;;;;;;;13.35;97.37;97515.88;6183842;23;20000;-78
2023/03/31 10:57:25;;;;;;;0.00;0.00;;;;;;;12.75;100.00;97524.94;6178208;23;20449;-77
2023/03/31 11:00:28;;;;;;;0.10;0.10;;;;;;;12.96;100.00;97531.34;6184373;23;20036;-79
2023/03/31 11:03:12;;;;;;;0.00;0.00;;;;;;;13.17;100.00;97526.41;6181031;23;20021;-78
2023/03/31 11:06:03;;;;;;;0.00;0.00;;;;;;;13.11;100.00;97549.75;6211404;23;20001;-77
2023/03/31 11:08:59;;;;;;;0.00;0.00;;;;;;;12.12;100.00;97549.41;6211202;23;19993;-77
2023/03/31 11:12:03;;;;;;;0.00;0.00;;;;;;;11.69;100.00;97557.09;6205715;23;20386;-78
2023/03/31 11:14:42;;;;;;;0.00;0.00;;;;;;;11.57;100.00;97573.53;6126139;23;20008;-78
2023/03/31 11:17:40;;;;;;;0.00;0.00;;;;;;;11.39;100.00;97573.75;6208922;23;20028;-79
2023/03/31 11:20:09;;;;;;;0.00;0.00;;;;;;;11.13;100.00;97585.00;6205716;23;20012;-78
2023/03/31 11:22:57;;;;;;;0.00;0.00;;;;;;;10.90;100.00;97596.31;6200650;23;20023;-77
2023/03/31 11:25:41;;;;;;;0.00;0.00;;;;;;;10.97;100.00;97590.31;6180537;23;20399;-76
2023/03/31 11:28:37;;;;;;;0.00;0.00;;;;;;;11.41;100.00;97614.44;6179176;23;20005;-77
2023/03/31 11:31:45;;;;;;;0.00;0.00;;;;;;;11.65;100.00;97595.31;6208986;23;20005;-78
2023/03/31 11:34:36;;;;;;;0.00;0.00;;;;;;;11.59;100.00;97599.38;6182506;23;20441;-74
2023/03/31 11:37:14;;;;;;;0.00;0.00;;;;;;;11.28;100.00;97614.41;6202569;23;20001;-76
2023/03/31 11:40:26;;;;;;;0.00;0.00;;;;;;;10.99;100.00;97612.63;6173008;23;20316;-75
2023/03/31 11:43:15;;;;;;;0.00;0.00;;;;;;;10.76;100.00;97617.69;6210655;23;20021;-78
2023/03/31 11:45:52;;;;;;;0.00;0.00;;;;;;;10.50;100.00;97610.53;6207324;23;20326;-78
2023/03/31 11:48:38;;;;;;;0.00;0.00;;;;;;;10.46;100.00;97628.72;6207326;23;20005;-79
2023/03/31 11:57:35;;;;;;;0.00;0.00;;;;;;;11.66;100.00;97665.31;6240768;23;20371;-77
2023/03/31 12:00:21;;;;;;;0.00;0.00;;;;;;;12.09;100.00;97643.22;6237478;23;20000;-79
2023/03/31 12:03:20;;;;;;;0.00;0.00;;;;;;;12.33;100.00;97648.66;6240303;23;20004;-78
2023/03/31 12:05:56;;;;;;;0.00;0.00;;;;;;;12.45;100.00;97644.31;6209046;23;20354;-76
2023/03/31 12:08:48;;;;;;;0.00;0.00;;;;;;;12.15;100.00;97671.97;6243151;23;20003;-77
2023/03/31 12:11:37;;;;;;;0.00;0.00;;;;;;;11.38;100.00;97659.69;6226995;22;20004;-76
2023/03/31 12:14:30;;;;;;;0.00;0.00;;;;;;;10.72;100.00;97671.41;6236770;23;20008;-75
2023/03/31 12:17:14;;;;;;;0.00;0.00;;;;;;;10.13;100.00;97670.34;6241021;23;20000;-77
2023/03/31 12:19:46;;;;;;;0.10;0.10;;;;;;;9.89;100.00;97676.44;6207404;23;20012;-76
2023/03/31 12:22:18;;;;;;;0.00;0.00;;;;;;;9.75;100.00;97682.09;6240019;23;20001;-76
2023/03/31 12:24:45;;;;;;;0.00;0.00;;;;;;;9.84;100.00;97699.25;6207744;23;20008;-76
2023/03/31 12:27:22;;;;;;;0.00;0.00;;;;;;;10.04;100.00;97688.72;6189480;23;20015;-77
2023/03/31 12:30:00;;;;;;;0.00;0.00;;;;;;;9.93;100.00;97691.81;6209565;23;20000;-78
2023/03/31 12:32:33;;;;;;;0.00;0.00;;;;;;;10.06;100.00;97711.84;6240977;23;20005;-78
2023/03/31 12:35:29;;;;;;;0.00;0.00;;;;;;;9.80;100.00;97725.59;6212363;23;20058;-80
2023/03/31 12:38:12;;;;;;;0.00;0.00;;;;;;;9.84;100.00;97734.75;6210535;23;20142;-79
2023/03/31 12:40:59;;;;;;;0.00;0.00;;;;;;;9.95;100.00;97716.84;6210333;23;20011;-77
2023/03/31 12:43:43;;;;;;;0.00;0.00;;;;;;;9.92;100.00;97722.97;6214006;23;20012;-79
2023/03/31 12:46:27;;;;;;;0.08;0.08;;;;;;;9.83;100.00;97733.13;6208443;23;20008;-76
2023/03/31 12:49:11;;;;;;;0.00;0.00;;;;;;;10.10;100.00;97742.81;6216963;23;20071;-78
2023/03/31 12:52:20;;;;;;;0.00;0.00;;;;;;;10.14;100.00;97757.41;6244224;23;20004;-78
2023/03/31 12:54:57;;;;;;;0.00;0.00;;;;;;;10.07;100.00;97748.13;6211936;23;20430;-75
2023/03/31 12:57:31;;;;;;;0.00;0.00;;;;;;;10.26;100.00;97762.16;6213154;23;20012;-75
2023/03/31 13:00:25;;;;;;;0.10;0.10;;;;;;;10.18;100.00;97760.28;6212264;23;20639;-76
2023/03/31 13:03:36;;;;;;;0.00;0.00;;;;;;;10.30;100.00;97765.84;6207869;23;20004;-76
2023/03/31 13:06:29;;;;;;;0.00;0.00;;;;;;;10.17;100.00;97747.75;6238229;23;20001;-75
2023/03/31 13:09:03;;;;;;;0.00;0.00;;;;;;;10.07;100.00;97791.81;6215895;23;20347;-78
2023/03/31 13:12:03;;;;;;;;;;;;;;;10.00;100.00;97807.88;6207413;23;20087;-75
2023/03/31 13:14:36;;;;;;;0.00;0.00;;;;;;;9.79;100.00;97798.47;6211137;22;19914;-76
2023/03/31 13:17:29;;;;;;;0.00;0.00;;;;;;;9.86;100.00;97800.72;6214192;23;20008;-75
2023/03/31 13:20:28;;;;;;;0.00;0.00;;;;;;;9.81;100.00;97833.63;6209712;23;20004;-77
2023/03/31 13:23:21;;;;;;;0.00;0.00;;;;;;;10.00;100.00;97816.09;6209032;23;20015;-76
2023/03/31 13:28:44;;;;;;;0.00;0.00;;;;;;;10.43;100.00;97829.59;6219405;23;20065;-76
2023/03/31 13:31:46;;;;;;;;;;;;;;;;;;;;;
2023/03/31 13:35:07;;;;;;;0.00;0.00;;;;;;;9.85;100.00;97820.94;6180456;23;20684;-76
2023/03/31 13:38:09;;;;;;;0.00;0.00;;;;;;;9.78;100.00;97834.28;6212953;23;20070;-77
2023/03/31 13:41:35;;;;;;;;;;;;;;;;;;;;;
2023/03/31 13:44:36;;;;;;;;;;;;;;;;;;;;;
2023/03/31 13:47:51;;;;;;;;;;;;;;;;;;;;;
2023/03/31 13:54:32;;;;;;;;;;;;;;;;;;;;;
2023/03/31 14:04:30;;;;;;;;;;;;;;;;;;;;;
2023/03/31 14:08:02;;;;;;;0.00;0.00;;;;;;;11.42;100.00;97870.50;6240001;23;20518;-75
2023/03/31 14:14:30;;;;;;;;;;;;;;;;;;;;;
2023/03/31 14:21:12;;;;;;;;;;;;;;;;;;;;;
2023/03/31 14:57:37;;;;;;;0.00;0.00;;;;;;;10.36;100.00;97944.03;6130783;23;20024;-78
2023/03/31 15:03:49;;;;;;;;;;;;;;;10.07;100.00;97991.13;6222897;22;20007;-77
2023/03/31 15:07:12;;;;;;;0.00;0.00;;;;;;;9.90;100.00;97965.44;6215614;22;19903;-77
2023/03/31 15:10:25;;;;;;;;;;;;;;;;;;;;;
2023/03/31 15:13:44;;;;;;;;;;;;;;;;;;;;;
2023/03/31 15:19:54;;;;;;;0.00;0.00;;;;;;;10.53;100.00;97992.41;6249308;22;20009;-77
2023/03/31 15:23:20;;;;;;;;;;;;;;;;;;;;;
2023/03/31 15:26:11;;;;;;;0.00;0.00;;;;;;;10.33;100.00;98028.56;6266730;22;20104;-77
2023/03/31 15:29:26;;;;;;;0.00;0.00;;;;;;;10.53;100.00;98019.72;6248731;22;20023;-75
2023/03/31 15:32:54;;;;;;;;;;;;;;;;;;;;;
2023/03/31 15:46:39;;;;;;;;;;;;;;;;;;;;;
2023/03/31 15:53:21;;;;;;;;;;;;;;;;;;;;;
2023/03/31 15:56:32;;;;;;;;;;;;;;;;;;;;;
2023/03/31 15:59:22;;;;;;;;;;;;;;;;;;;;;
2023/03/31 16:09:30;;;;;;;;;;;;;;;;;;;;;
2023/03/31 16:19:31;;;;;;;0.00;0.00;;;;;;;10.06;100.00;98123.31;5983014;23;20035;-78
2023/03/31 16:22:00;;;;;;;0.00;0.00;;;;;;;9.73;100.00;98082.81;6120995;23;20058;-78
2023/03/31 16:24:39;;;;;;;0.10;0.10;;;;;;;9.82;100.00;98130.00;6148500;23;20083;-79
2023/03/31 16:28:43;;;;;;;0.00;0.00;;;;;;;9.76;100.00;98106.72;6148304;23;20456;-81
2023/03/31 16:30:45;;;;;;;0.00;0.00;;;;;;;9.53;100.00;98104.06;6067717;23;20010;-77
2023/03/31 16:33:27;;;;;;;0.00;0.00;;;;;;;9.46;100.00;98089.28;6154368;22;20034;-80
2023/03/31 16:35:57;;;;;;;0.00;0.00;;;;;;;9.51;100.00;98128.16;6266915;22;20709;-78
2023/03/31 16:38:54;;;;;;;0.00;0.00;;;;;;;9.54;100.00;98127.53;6239914;22;20004;-77
2023/03/31 16:41:30;;;;;;;0.00;0.00;;;;;;;9.49;100.00;98119.50;6230837;22;20003;-80
2023/03/31 16:43:55;;;;;;;0.00;0.00;;;;;;;9.55;100.00;98120.94;6241158;22;20004;-78
2023/03/31 16:46:22;;;;;;;0.00;0.00;;;;;;;9.53;100.00;98123.16;6246061;22;20011;-78
2023/03/31 16:48:48;;;;;;;0.00;0.00;;;;;;;9.58;100.00;98149.53;6238919;22;20322;-78
2023/03/31 16:51:16;;;;;;;0.00;0.00;;;;;;;9.40;100.00;98126.81;6219862;22;20087;-77
2023/03/31 16:53:43;;;;;;;0.00;0.00;;;;;;;9.24;100.00;98134.59;6237629;22;20323;-78
2023/03/31 16:56:10;;;;;;;0.00;0.00;;;;;;;9.23;100.00;98155.63;6245941;22;20376;-78
2023/03/31 16:58:37;;;;;;;0.00;0.00;;;;;;;9.14;100.00;98157.50;6265183;22;20414;-78
2023/03/31 17:01:07;;;;;;;0.00;0.00;;;;;;;9.10;100.00;98145.59;6245297;22;20015;-77
2023/03/31 17:03:33;;;;;;;0.00;0.00;;;;;;;9.20;100.00;98174.50;6273280;22;20482;-77
2023/03/31 17:06:05;;;;;;;0.00;0.00;;;;;;;9.06;100.00;98150.06;6240951;22;20476;-77
2023/03/31 17:08:31;;;;;;;0.00;0.00;;;;;;;9.05;100.00;98156.63;6245363;22;20014;-79
2023/03/31 17:11:13;;;;;;;0.00;0.00;;;;;;;9.10;100.00;98170.16;6241732;22;20185;-78
2023/03/31 17:13:55;;;;;;;0.00;0.00;;;;;;;9.03;100.00;98158.88;6243887;22;20011;-81
2023/03/31 17:19:22;;;;;;;;;;;;;;;;;;;;;
2023/03/31 17:22:02;;;;;;;0.00;0.00;;;;;;;8.96;100.00;98204.84;6227297;22;20078;-80
2023/03/31 17:24:28;;;;;;;0.00;0.00;;;;;;;8.70;100.00;98187.19;6247961;22;20399;-79
2023/03/31 17:27:04;;;;;;;;;;;;;;;;;;;;;
2023/03/31 17:29:32;;;;;;;0.00;0.00;;;;;;;8.71;100.00;98201.59;6273485;22;20078;-79
2023/03/31 17:31:58;;;;;;;0.00;0.00;;;;;;;8.55;100.00;98210.09;6241441;22;20003;-77
2023/03/31 17:34:23;;;;;;;0.00;0.00;;;;;;;8.44;100.00;98192.41;6195811;22;20012;-78
2023/03/31 17:36:50;;;;;;;0.00;0.00;;;;;;;8.52;100.00;98246.13;6214982;22;20157;-77
2023/03/31 17:39:31;;;;;;;;;;;;;;;;;;;;;
2023/03/31 17:42:15;;;;;;;0.00;0.00;;;;;;;8.34;100.00;98211.66;6265682;22;20007;-79
2023/03/31 17:44:58;;;;;;;0.00;0.00;;;;;;;8.23;100.00;98202.88;6242295;22;20511;-80
2023/03/31 17:47:24;;;;;;;0.00;0.00;;;;;;;8.30;100.00;98259.66;6273184;22;20086;-79